Carmunnock, United Kingdom
Current Conditions -  °F | °C
As of 1:50 PM on Thursday 23 Oct 2014 (Local Time) from EGPF Reporting Station
Overcast Overcast  
Wind Chill: 57°   Ceiling: 1000
Heat Index: 57°   Visibility: 6mi
Dew Point: 54°   Wind: 18mph
Humidity: 88%   Direction: 220°SW
Pressure: 29.74"   Gusts: NA
Location:  55.79°N, 4.24°W
Report Text: EGPF 231250Z AUTO 22016KT 9999 OVC010 14/12 Q1007
Loading
Personal Weather Stations






























Interactive Weather Map
Tropical Storm Tracking
New forecast layout! Learn more

10-Day Weather Forecast

Advertisements
Track Severe Weather on mobile